Aeroporto :
LOGIN :

Iscrizione | Disclaimer

   EN    FR    IT 

 










Sommario :    VFR   VFR Marginale   IFR   IFR Intensivo   IFR Molto Intensivo
Visibilità : 
Base nubi : 
>= 8 km
>= 3000ft
5 / 8 km
1000 / 3000 ft
1500m / 5 km
500 / 1000 ft
800 / 1500m
200 / 500 ft
< 800m
< 200 ft
Simboli :   Temporali  Nebbia  Neve Forte  Precipitazioni Forti  Vento > 20 kt
SIGMETs :   Varie  Temporali  Ghiacco  Turbolenza  Onda orograficha  Ceneri Vulcaniche






- Altitudine del aeroporto : 794 ft


LKCV - Čáslav Air Base

ULTIMO METAR :
  • 220100Z 17002KT CAVOK 11/08 Q1015 NOSIG RMK BLU BLU

METARs OBSOLETI :
  • 220030Z 22003KT CAVOK 11/08 Q1015 NOSIG RMK BLU BLU
  • 220000Z 19003KT CAVOK 11/08 Q1015 NOSIG RMK BLU BLU
  • 212330Z VRB01KT CAVOK 11/09 Q1016 NOSIG RMK BLU BLU
  • 212300Z VRB02KT CAVOK 11/08 Q1016 NOSIG RMK BLU BLU
  • 212230Z VRB01KT CAVOK 14/08 Q1016 NOSIG

TAF TAF LKCV
Valido dal 22 a 00 ore il 23 a 00 ore UTC


212300Z 2200/2300 14004KT CAVOK
TEMPO 2209/2218 16010KT



MetMap, La meteo Aeronautica in un colpo d'occhio ! - Copyright ORBIFLY Dicembre 2007 - Disclaimer

ORBIFLY MET'MAP TEAM :

Programmazione e sviluppo : Alexandra Zaïnal
Concezione : Baudouin d'Aumeries
Aiuto per la programmazione : Marc-Olivier Méhu
Supporto tecnico e logistico : Manuel Goepfert
Aiuto per la traduzione : Arnaldo La Scala

Contatto : metmap@orbifly.com




FONTI E CREDITI :

   NOAA